Time;durP1;ratioP1;P1;durP2;ratioP2;P2;SDS_P1;SDS_P2;PMS_P1;PMS_P2;Temp;Humidity;BMP_temperature;BMP_pressure;BME280_temperature;BME280_humidity;BME280_pressure;Samples;Min_cycle;Max_cycle;Signal;HPM_P1;HPM_P2
2022/09/24 00:01:31;;;;;;;11.23;6.30;;;5.20;99.90;;;;;;5073614;28;20032;-69
2022/09/24 00:04:00;;;;;;;9.60;5.88;;;5.20;99.90;;;;;;5055383;28;20044;-69
2022/09/24 00:06:27;;;;;;;7.97;5.40;;;5.20;99.90;;;;;;5073432;28;20037;-69
2022/09/24 00:08:55;;;;;;;8.45;5.72;;;5.10;99.90;;;;;;5055463;28;20029;-69
2022/09/24 00:11:25;;;;;;;10.38;5.22;;;5.10;99.90;;;;;;5073283;28;20028;-69
2022/09/24 00:13:52;;;;;;;9.32;6.07;;;5.10;99.90;;;;;;5073272;28;20066;-69
2022/09/24 00:16:19;;;;;;;7.95;5.88;;;5.00;99.90;;;;;;5054978;28;20078;-70
2022/09/24 00:18:46;;;;;;;7.95;5.45;;;5.10;99.90;;;;;;5075432;28;20609;-70
2022/09/24 00:21:23;;;;;;;9.18;5.78;;;5.00;99.90;;;;;;5058982;28;20032;-69
2022/09/24 00:23:51;;;;;;;6.65;5.15;;;5.00;99.90;;;;;;5076546;28;20024;-69
2022/09/24 00:29:03;;;;;;;12.82;6.35;;;5.00;99.90;;;;;;5076785;28;20031;-70
2022/09/24 00:31:29;;;;;;;9.80;5.60;;;4.90;99.90;;;;;;5076753;28;20031;-70
2022/09/24 00:33:56;;;;;;;7.63;5.15;;;4.90;99.90;;;;;;5076409;28;20022;-69
2022/09/24 00:36:22;;;;;;;7.82;5.57;;;4.90;99.90;;;;;;5076307;28;20103;-69
2022/09/24 00:38:50;;;;;;;7.50;5.38;;;4.90;99.90;;;;;;5076592;28;20056;-70
2022/09/24 00:41:18;;;;;;;6.57;5.28;;;4.90;99.90;;;;;;5076530;28;20107;-70
2022/09/24 00:43:45;;;;;;;10.98;5.35;;;4.90;99.90;;;;;;5075263;28;20043;-69
2022/09/24 00:46:29;;;;;;;6.75;5.60;;;4.90;99.90;;;;;;5058525;28;20374;-70
2022/09/24 00:49:01;;;;;;;10.05;5.50;;;4.90;99.90;;;;;;5076708;28;20063;-69
2022/09/24 00:51:29;;;;;;;8.98;6.10;;;4.90;99.90;;;;;;5076339;28;20025;-70
2022/09/24 00:54:03;;;;;;;13.48;6.03;;;4.90;99.90;;;;;;5075004;28;20031;-69
2022/09/24 00:56:32;;;;;;;12.43;5.55;;;4.90;99.90;;;;;;5058645;28;20555;-70
2022/09/24 00:59:03;;;;;;;7.82;5.60;;;4.90;99.90;;;;;;5076238;28;20025;-70
2022/09/24 01:01:29;;;;;;;8.10;5.40;;;4.90;99.90;;;;;;5075912;28;20025;-70
2022/09/24 01:03:56;;;;;;;7.55;5.13;;;5.10;99.90;;;;;;5057288;28;20052;-69
2022/09/24 01:06:24;;;;;;;9.30;6.00;;;4.90;99.90;;;;;;5056072;28;20037;-69
2022/09/24 01:08:50;;;;;;;9.75;4.88;;;4.80;99.90;;;;;;5055706;28;20032;-69
2022/09/24 01:11:28;;;;;;;8.00;5.35;;;4.80;99.90;;;;;;5038103;28;20465;-69
2022/09/24 01:14:12;;;;;;;6.35;4.82;;;4.80;99.90;;;;;;5038045;28;20052;-70
2022/09/24 01:16:52;;;;;;;6.00;4.68;;;4.90;99.90;;;;;;5056304;28;20025;-70
2022/09/24 01:19:55;;;;;;;7.22;4.93;;;4.90;99.90;;;;;;5038362;28;20078;-69
2022/09/24 01:22:22;;;;;;;7.43;4.88;;;4.80;99.90;;;;;;5004625;28;20443;-70
2022/09/24 01:25:09;;;;;;;7.07;5.18;;;4.90;99.90;;;;;;5037752;28;20029;-70
2022/09/24 01:27:56;;;;;;;9.70;4.82;;;4.80;99.90;;;;;;5055485;28;20428;-70
2022/09/24 01:30:22;;;;;;;5.50;4.53;;;4.80;99.90;;;;;;5036865;28;20071;-69
2022/09/24 01:32:52;;;;;;;5.22;4.63;;;4.80;99.90;;;;;;5055654;28;20028;-69
2022/09/24 01:35:41;;;;;;;7.20;4.97;;;4.80;99.90;;;;;;5055609;28;20033;-69
2022/09/24 01:38:13;;;;;;;5.68;4.88;;;4.80;99.90;;;;;;5055765;28;20108;-69
2022/09/24 01:40:41;;;;;;;6.05;4.80;;;4.80;99.90;;;;;;5055837;28;20029;-69
2022/09/24 01:43:09;;;;;;;9.05;4.80;;;4.70;99.90;;;;;;5055611;28;20021;-70
2022/09/24 01:45:37;;;;;;;9.85;5.22;;;4.80;99.90;;;;;;5055573;28;20025;-70
2022/09/24 01:48:04;;;;;;;7.97;5.13;;;4.80;99.90;;;;;;5055625;28;20112;-69
2022/09/24 01:50:37;;;;;;;6.10;4.60;;;4.80;99.90;;;;;;5055556;28;20438;-70
2022/09/24 01:53:13;;;;;;;5.47;4.25;;;4.90;99.90;;;;;;5037530;28;20029;-69
2022/09/24 01:55:48;;;;;;;7.22;4.70;;;4.80;99.90;;;;;;5037861;28;20065;-69
2022/09/24 01:58:19;;;;;;;6.80;5.20;;;4.80;99.90;;;;;;5037299;28;20127;-70
2022/09/24 02:00:48;;;;;;;5.35;4.38;;;4.80;99.90;;;;;;5037551;28;20079;-69
2022/09/24 02:03:28;;;;;;;7.68;4.60;;;4.80;99.90;;;;;;5054569;28;20049;-70
2022/09/24 02:06:08;;;;;;;6.28;4.72;;;4.80;99.90;;;;;;5055123;28;20033;-70
2022/09/24 02:08:40;;;;;;;6.88;4.15;;;4.80;99.90;;;;;;5054988;28;20108;-69
2022/09/24 02:11:10;;;;;;;5.43;4.53;;;4.70;99.90;;;;;;5036968;28;20036;-70
2022/09/24 02:13:55;;;;;;;7.85;4.20;;;4.70;99.90;;;;;;5054824;28;20033;-69
2022/09/24 02:16:27;;;;;;;4.72;4.22;;;4.80;99.90;;;;;;5036836;28;20029;-69
2022/09/24 02:18:56;;;;;;;8.52;4.10;;;4.70;99.90;;;;;;5054756;28;20060;-69
2022/09/24 02:21:23;;;;;;;;;;;4.70;99.90;;;;;;5037184;28;20021;-70
2022/09/24 02:23:56;;;;;;;7.07;4.60;;;4.70;99.90;;;;;;5054629;28;19905;-69
2022/09/24 02:26:22;;;;;;;6.90;4.40;;;4.70;99.90;;;;;;5036398;28;20055;-70
2022/09/24 02:28:48;;;;;;;6.05;4.95;;;4.70;99.90;;;;;;5036643;28;20021;-70
2022/09/24 02:31:22;;;;;;;11.07;6.05;;;4.70;99.90;;;;;;5036546;28;20049;-69
2022/09/24 02:36:37;;;;;;;12.43;5.78;;;4.80;99.90;;;;;;5054216;28;20048;-69
2022/09/24 02:39:03;;;;;;;5.93;4.55;;;4.70;99.90;;;;;;5054508;28;20029;-70
2022/09/24 02:41:30;;;;;;;5.72;4.80;;;4.70;99.90;;;;;;5053440;28;20028;-69
2022/09/24 02:43:55;;;;;;;7.25;5.30;;;4.70;99.90;;;;;;5054240;28;20025;-70
2022/09/24 02:46:21;;;;;;;6.95;5.30;;;4.70;99.90;;;;;;5054236;28;20104;-69
2022/09/24 02:48:47;;;;;;;8.57;4.88;;;4.70;99.90;;;;;;5054161;28;20025;-69
2022/09/24 02:51:13;;;;;;;6.65;5.07;;;4.70;99.90;;;;;;5053817;28;20075;-69
2022/09/24 02:53:39;;;;;;;5.97;4.47;;;4.70;99.90;;;;;;5054063;28;20082;-69
2022/09/24 02:56:05;;;;;;;6.50;4.53;;;4.70;99.90;;;;;;5054054;28;20025;-70
2022/09/24 02:58:30;;;;;;;9.07;5.00;;;4.70;99.90;;;;;;5036192;28;20024;-70
2022/09/24 03:00:56;;;;;;;6.30;4.40;;;4.80;99.90;;;;;;5053675;28;20051;-69
2022/09/24 03:03:25;;;;;;;6.78;4.85;;;4.80;99.90;;;;;;5053833;28;20095;-69
2022/09/24 03:05:54;;;;;;;;;;;4.80;99.90;;;;;;5036407;28;20526;-69
2022/09/24 03:08:21;;;;;;;9.65;4.57;;;4.90;99.90;;;;;;5036067;28;19952;-69
2022/09/24 03:10:48;;;;;;;5.78;4.13;;;4.90;99.90;;;;;;5054153;28;20057;-69
2022/09/24 03:13:13;;;;;;;7.72;4.65;;;4.90;99.90;;;;;;5035967;28;20029;-69
2022/09/24 03:15:39;;;;;;;5.95;4.40;;;4.90;99.90;;;;;;5035984;28;20029;-69
2022/09/24 03:18:05;;;;;;;7.43;4.63;;;4.90;99.90;;;;;;5053775;28;20036;-69
2022/09/24 03:20:31;;;;;;;6.32;4.32;;;4.90;99.90;;;;;;5053582;28;20044;-70
2022/09/24 03:22:56;;;;;;;8.77;4.40;;;4.90;99.90;;;;;;5053889;28;20029;-69
2022/09/24 03:25:22;;;;;;;7.90;4.63;;;4.90;99.90;;;;;;5053827;28;20090;-69
2022/09/24 03:27:47;;;;;;;6.43;4.45;;;4.90;99.90;;;;;;5053633;28;20029;-69
2022/09/24 03:32:58;;;;;;;5.80;4.28;;;4.80;99.90;;;;;;5053493;28;20207;-69
2022/09/24 03:35:24;;;;;;;6.57;4.45;;;4.90;99.90;;;;;;5053604;28;20021;-70
2022/09/24 03:37:50;;;;;;;8.57;4.65;;;4.80;99.90;;;;;;5035860;28;20037;-69
2022/09/24 03:40:16;;;;;;;5.28;3.83;;;4.80;99.90;;;;;;5036064;28;20029;-69
2022/09/24 03:42:42;;;;;;;5.07;3.95;;;4.80;99.90;;;;;;5053509;28;20078;-69
2022/09/24 03:45:08;;;;;;;5.07;4.20;;;4.80;99.90;;;;;;5053450;28;20025;-69
2022/09/24 03:47:34;;;;;;;7.55;4.35;;;4.80;99.90;;;;;;5053497;28;20036;-69
2022/09/24 03:50:01;;;;;;;6.80;4.18;;;4.80;99.90;;;;;;5036075;28;20117;-69
2022/09/24 03:52:27;;;;;;;6.45;3.90;;;4.80;99.90;;;;;;5035809;28;20444;-69
2022/09/24 03:54:52;;;;;;;6.63;4.15;;;4.80;99.90;;;;;;5057385;28;20029;-69
2022/09/24 03:57:18;;;;;;;4.95;3.58;;;4.80;99.90;;;;;;5057394;28;20056;-69
2022/09/24 03:59:44;;;;;;;8.27;4.38;;;4.80;99.90;;;;;;5057357;28;20104;-69
2022/09/24 04:02:10;;;;;;;8.00;3.72;;;5.00;99.90;;;;;;5043843;28;20044;-69
2022/09/24 04:04:36;;;;;;;7.00;4.18;;;4.80;99.90;;;;;;5076882;28;20081;-69
2022/09/24 04:07:02;;;;;;;6.55;4.28;;;4.80;99.90;;;;;;5059287;28;20024;-69
2022/09/24 04:09:28;;;;;;;6.32;4.18;;;4.80;99.90;;;;;;5059242;28;20107;-70
2022/09/24 04:11:54;;;;;;;8.63;4.45;;;4.80;99.90;;;;;;5077347;28;20025;-69
2022/09/24 04:14:20;;;;;;;4.78;3.88;;;4.70;99.90;;;;;;5058832;28;20173;-70
2022/09/24 04:16:46;;;;;;;6.78;3.88;;;4.70;99.90;;;;;;5077043;28;20158;-69
2022/09/24 04:19:14;;;;;;;7.05;4.57;;;4.70;99.90;;;;;;5076991;28;20020;-69
2022/09/24 04:21:44;;;;;;;7.97;4.22;;;4.70;99.90;;;;;;5076937;28;20032;-69
2022/09/24 04:24:09;;;;;;;;;;;4.70;99.90;;;;;;5077509;28;20044;-69
2022/09/24 04:26:35;;;;;;;7.85;4.15;;;4.70;99.90;;;;;;5077108;28;19908;-70
2022/09/24 04:29:01;;;;;;;6.28;4.40;;;4.70;99.90;;;;;;5076703;28;20431;-69
2022/09/24 04:31:26;;;;;;;6.32;4.60;;;4.60;99.90;;;;;;5059046;28;20036;-69
2022/09/24 04:33:52;;;;;;;4.75;3.63;;;4.70;99.90;;;;;;5077011;28;20441;-69
2022/09/24 04:36:19;;;;;;;5.68;4.05;;;4.70;99.90;;;;;;5058506;28;20032;-69
2022/09/24 04:38:47;;;;;;;7.47;4.63;;;4.70;99.90;;;;;;5076648;28;20031;-69
2022/09/24 04:41:16;;;;;;;13.27;4.47;;;4.70;99.90;;;;;;5076826;28;20028;-69
2022/09/24 04:43:45;;;;;;;6.28;4.55;;;4.90;99.90;;;;;;5076537;28;20033;-69
2022/09/24 04:46:12;;;;;;;6.07;3.75;;;4.70;99.90;;;;;;5076686;28;20460;-69
2022/09/24 04:48:38;;;;;;;6.50;4.47;;;4.60;99.90;;;;;;5076443;28;20040;-69
2022/09/24 04:51:06;;;;;;;6.50;4.80;;;4.60;99.90;;;;;;5076412;28;20471;-69
2022/09/24 04:53:36;;;;;;;6.97;4.15;;;4.60;99.90;;;;;;5076348;28;20385;-69
2022/09/24 04:56:03;;;;;;;7.95;4.57;;;4.60;99.90;;;;;;5075014;28;20472;-69
2022/09/24 04:58:30;;;;;;;7.55;4.68;;;4.60;99.90;;;;;;5075713;28;20032;-69
2022/09/24 05:00:55;;;;;;;6.68;4.53;;;4.60;99.90;;;;;;5058232;28;20025;-70
2022/09/24 05:03:21;;;;;;;9.52;4.90;;;4.70;99.90;;;;;;5058034;28;20102;-69
2022/09/24 05:05:49;;;;;;;7.75;4.43;;;4.70;99.90;;;;;;5057958;28;20039;-69
2022/09/24 05:08:16;;;;;;;8.70;5.35;;;4.70;99.90;;;;;;5058605;28;20028;-69
2022/09/24 05:10:42;;;;;;;8.18;5.20;;;4.80;99.90;;;;;;5058102;28;20361;-69
2022/09/24 05:13:08;;;;;;;7.57;5.20;;;4.80;99.90;;;;;;5058360;28;20028;-69
2022/09/24 05:15:33;;;;;;;10.00;5.13;;;4.90;99.90;;;;;;5076249;28;20494;-69
2022/09/24 05:17:59;;;;;;;7.72;4.97;;;4.90;99.90;;;;;;5075918;28;20082;-69
2022/09/24 05:20:24;;;;;;;8.82;4.75;;;5.00;99.90;;;;;;5057857;28;20119;-69
2022/09/24 05:22:50;;;;;;;5.70;4.53;;;5.10;99.90;;;;;;5076305;28;20033;-69
2022/09/24 05:25:18;;;;;;;9.15;5.00;;;5.20;99.90;;;;;;5075710;28;20040;-69
2022/09/24 05:27:54;;;;;;;7.22;4.95;;;5.30;99.90;;;;;;5075725;28;20503;-69
2022/09/24 05:30:22;;;;;;;6.20;4.55;;;5.40;99.90;;;;;;5057736;28;20016;-69
2022/09/24 05:32:50;;;;;;;8.27;4.10;;;5.50;99.90;;;;;;5075322;28;20384;-68
2022/09/24 05:35:17;;;;;;;6.85;4.10;;;5.60;99.90;;;;;;5057860;28;20380;-68
2022/09/24 05:37:44;;;;;;;7.38;4.90;;;5.70;99.90;;;;;;5075505;28;20032;-68
2022/09/24 05:43:02;;;;;;;7.20;4.20;;;5.90;99.90;;;;;;5075520;28;20032;-67
2022/09/24 05:45:29;;;;;;;4.03;3.63;;;6.10;99.90;;;;;;5057386;28;20066;-67
2022/09/24 05:47:54;;;;;;;6.05;4.18;;;6.20;99.90;;;;;;5057384;28;20090;-68
2022/09/24 05:50:20;;;;;;;8.55;4.50;;;6.40;99.90;;;;;;5074960;28;20020;-68
2022/09/24 05:52:46;;;;;;;7.53;3.50;;;6.50;99.90;;;;;;5075685;28;20024;-67
2022/09/24 05:55:12;;;;;;;7.07;4.05;;;6.60;99.90;;;;;;5074975;28;20036;-68
2022/09/24 05:57:38;;;;;;;5.68;3.72;;;6.80;99.90;;;;;;5057114;28;20510;-68
2022/09/24 06:00:05;;;;;;;8.50;3.92;;;6.90;99.90;;;;;;5075383;28;20055;-68
2022/09/24 06:02:31;;;;;;;5.07;3.30;;;7.00;99.90;;;;;;5056994;28;20384;-67
2022/09/24 06:04:57;;;;;;;4.65;2.90;;;7.10;99.90;;;;;;5074651;28;20029;-70
2022/09/24 06:07:22;;;;;;;8.85;3.58;;;7.20;99.90;;;;;;5075541;28;20021;-70
2022/09/24 06:09:48;;;;;;;9.45;4.15;;;7.30;99.90;;;;;;5075379;28;20028;-67
2022/09/24 06:12:13;;;;;;;4.82;3.70;;;7.30;99.90;;;;;;5075647;28;20457;-70
2022/09/24 06:14:41;;;;;;;8.50;4.63;;;7.50;99.90;;;;;;5057695;28;20029;-70
2022/09/24 06:17:07;;;;;;;7.15;3.60;;;7.70;99.90;;;;;;5074149;28;20589;-70
2022/09/24 06:19:33;;;;;;;5.03;3.40;;;8.00;99.90;;;;;;5057550;28;20461;-72
2022/09/24 06:21:59;;;;;;;3.80;3.15;;;8.40;99.90;;;;;;5056756;28;20120;-70
2022/09/24 06:24:24;;;;;;;6.75;3.38;;;8.70;99.90;;;;;;5074529;28;20150;-70
2022/09/24 06:26:50;;;;;;;4.70;3.13;;;8.90;99.90;;;;;;5056538;28;20036;-69
2022/09/24 06:29:16;;;;;;;6.57;2.88;;;9.10;99.90;;;;;;5074436;28;20025;-70
2022/09/24 06:31:43;;;;;;;6.00;3.15;;;9.40;99.90;;;;;;5056550;28;20032;-69
2022/09/24 06:34:09;;;;;;;3.95;2.95;;;9.70;99.90;;;;;;5074122;28;20476;-70
2022/09/24 06:36:35;;;;;;;4.22;2.63;;;10.10;99.90;;;;;;5074435;28;20029;-70
2022/09/24 06:39:01;;;;;;;5.00;2.97;;;10.40;99.90;;;;;;5056468;28;20381;-69
2022/09/24 06:41:26;;;;;;;6.15;2.88;;;10.50;99.90;;;;;;5074288;28;20372;-70
2022/09/24 06:43:55;;;;;;;3.13;2.83;;;10.30;99.90;;;;;;5056379;28;20024;-70
2022/09/24 06:46:24;;;;;;;7.15;2.88;;;10.30;99.90;;;;;;5056380;28;20542;-71
2022/09/24 06:48:50;;;;;;;;;;;10.30;99.90;;;;;;5057181;28;20068;-71
2022/09/24 06:51:16;;;;;;;3.85;2.85;;;10.20;99.90;;;;;;5056283;28;19915;-71
2022/09/24 06:53:41;;;;;;;3.50;3.20;;;10.20;99.90;;;;;;5073865;28;20459;-70
2022/09/24 06:56:07;;;;;;;4.05;3.65;;;10.20;99.90;;;;;;5073808;28;20032;-73
2022/09/24 06:58:33;;;;;;;6.13;3.90;;;10.20;99.90;;;;;;5056011;28;20025;-71
2022/09/24 07:01:02;;;;;;;5.40;3.88;;;10.20;99.90;;;;;;5056065;28;20111;-71
2022/09/24 07:03:31;;;;;;;5.15;4.05;;;10.20;99.90;;;;;;5058340;28;20132;-72
2022/09/24 07:06:00;;;;;;;9.10;4.30;;;10.20;99.90;;;;;;5053871;28;20112;-72
2022/09/24 07:08:26;;;;;;;;;;;10.60;99.90;;;;;;5036545;28;20041;-72
2022/09/24 07:10:51;;;;;;;6.10;4.03;;;11.20;99.90;;;;;;5053576;28;19904;-71
2022/09/24 07:13:20;;;;;;;7.72;4.82;;;11.80;99.90;;;;;;5054127;28;20036;-70
2022/09/24 07:15:45;;;;;;;8.23;5.05;;;12.00;99.90;;;;;;5053815;28;20028;-69
2022/09/24 07:18:12;;;;;;;6.05;4.65;;;12.30;99.90;;;;;;5053398;28;20029;-70
2022/09/24 07:20:37;;;;;;;10.75;4.93;;;12.70;99.90;;;;;;5035781;28;20404;-71
2022/09/24 07:23:05;;;;;;;9.27;4.50;;;13.00;99.90;;;;;;5035738;28;20032;-72
2022/09/24 07:25:31;;;;;;;5.47;4.70;;;13.20;99.90;;;;;;5053553;28;20037;-72
2022/09/24 07:28:04;;;;;;;5.68;4.07;;;13.30;99.90;;;;;;5035208;28;20032;-72
2022/09/24 07:30:30;;;;;;;6.18;3.72;;;13.50;99.90;;;;;;5053774;28;20032;-67
2022/09/24 07:32:57;;;;;;;6.43;4.60;;;13.90;99.90;;;;;;5053586;28;20379;-57
2022/09/24 07:35:23;;;;;;;5.90;4.60;;;14.00;99.90;;;;;;5035827;28;20380;-57
2022/09/24 07:37:56;;;;;;;8.30;4.60;;;14.10;99.90;;;;;;5053497;28;20103;-58
2022/09/24 07:40:23;;;;;;;7.53;4.25;;;14.10;99.90;;;;;;5053784;28;20025;-57
2022/09/24 07:42:49;;;;;;;7.47;4.80;;;14.20;99.90;;;;;;5053180;28;20029;-71
2022/09/24 07:45:16;;;;;;;8.82;4.25;;;14.20;99.90;;;;;;5053391;28;20025;-71
2022/09/24 07:47:42;;;;;;;7.30;5.00;;;14.40;99.90;;;;;;5053466;28;20025;-70
2022/09/24 07:50:08;;;;;;;6.40;4.53;;;14.50;99.90;;;;;;5053289;28;20051;-71
2022/09/24 07:52:34;;;;;;;5.35;3.80;;;14.40;99.90;;;;;;5053126;28;20029;-72
2022/09/24 07:55:00;;;;;;;8.43;4.95;;;14.40;99.90;;;;;;5035445;28;20032;-71
2022/09/24 07:57:26;;;;;;;8.50;4.10;;;14.30;99.90;;;;;;5053910;28;20033;-71
2022/09/24 07:59:52;;;;;;;8.35;4.70;;;14.40;99.90;;;;;;5053311;28;20028;-71
2022/09/24 08:02:19;;;;;;;7.57;4.55;;;14.80;99.90;;;;;;5053214;28;20393;-71
2022/09/24 08:04:45;;;;;;;5.00;4.45;;;15.10;99.90;;;;;;5052862;28;20454;-72
2022/09/24 08:07:12;;;;;;;6.20;4.05;;;15.10;99.90;;;;;;5035481;28;20033;-70
2022/09/24 08:09:38;;;;;;;6.07;4.57;;;15.40;99.90;;;;;;5053171;28;20484;-58
2022/09/24 08:12:04;;;;;;;5.63;3.95;;;15.60;99.40;;;;;;5053111;28;20029;-58
2022/09/24 08:14:30;;;;;;;4.43;3.95;;;15.90;99.00;;;;;;5053973;28;20029;-58
2022/09/24 08:16:55;;;;;;;5.93;4.22;;;15.90;98.30;;;;;;5053086;28;20048;-58
2022/09/24 08:19:21;;;;;;;5.45;3.45;;;16.00;97.40;;;;;;5053095;28;20051;-71
2022/09/24 08:21:47;;;;;;;4.45;3.70;;;16.10;96.20;;;;;;5053030;28;20446;-71
2022/09/24 08:24:14;;;;;;;3.63;3.20;;;16.10;96.30;;;;;;5053211;28;20133;-72
2022/09/24 08:26:40;;;;;;;9.85;5.10;;;16.40;93.80;;;;;;5053026;28;20036;-70
2022/09/24 08:29:06;;;;;;;7.38;5.15;;;16.60;95.00;;;;;;5052913;28;20029;-72
2022/09/24 08:31:33;;;;;;;9.75;5.47;;;16.80;94.50;;;;;;5035228;28;20032;-72
2022/09/24 08:34:00;;;;;;;7.47;5.57;;;17.20;93.70;;;;;;5035119;28;20083;-72
2022/09/24 08:36:26;;;;;;;9.70;5.05;;;17.50;92.90;;;;;;5053070;28;20069;-71
2022/09/24 08:38:55;;;;;;;8.25;5.20;;;17.80;92.60;;;;;;5052887;28;20461;-71
2022/09/24 08:41:42;;;;;;;11.80;7.22;;;18.30;91.10;;;;;;5038153;28;20069;-71
2022/09/24 08:47:44;;;;;;;7.57;5.63;;;18.40;88.70;;;;;;5056237;28;20143;-72
2022/09/24 08:50:20;;;;;;;8.27;5.57;;;18.10;87.30;;;;;;5056721;28;20031;-72
2022/09/24 08:52:58;;;;;;;10.98;5.75;;;17.70;88.40;;;;;;5056538;28;20033;-75
2022/09/24 08:55:34;;;;;;;8.88;6.35;;;17.70;89.50;;;;;;5038482;28;20029;-70
2022/09/24 08:58:15;;;;;;;8.00;5.82;;;17.90;88.60;;;;;;5056585;28;20021;-71
2022/09/24 09:01:04;;;;;;;8.65;5.95;;;18.10;88.80;;;;;;5056235;28;20031;-72
2022/09/24 09:03:30;;;;;;;7.47;5.45;;;18.00;85.50;;;;;;5053571;28;20163;-72
2022/09/24 09:06:03;;;;;;;10.30;5.70;;;17.80;84.80;;;;;;5079449;28;20589;-73
2022/09/24 09:08:47;;;;;;;9.73;5.97;;;17.90;85.70;;;;;;5077994;28;20472;-72
2022/09/24 09:11:15;;;;;;;6.40;5.43;;;18.00;86.00;;;;;;5058727;28;20085;-73
2022/09/24 09:13:50;;;;;;;7.13;5.33;;;18.30;83.90;;;;;;5058359;28;20021;-61
2022/09/24 09:16:26;;;;;;;10.05;5.50;;;19.10;82.90;;;;;;5076646;28;20261;-59
2022/09/24 09:18:58;;;;;;;8.05;4.88;;;19.80;78.90;;;;;;5075934;28;20031;-60
2022/09/24 09:21:35;;;;;;;7.43;4.93;;;20.60;76.00;;;;;;5075990;28;20210;-59
2022/09/24 09:24:03;;;;;;;9.98;5.47;;;21.10;71.60;;;;;;5075771;28;20040;-71
2022/09/24 09:26:29;;;;;;;9.73;5.40;;;21.20;69.80;;;;;;5057660;28;20028;-71
2022/09/24 09:29:00;;;;;;;10.38;5.47;;;21.30;69.00;;;;;;5057653;28;20111;-71
2022/09/24 09:31:54;;;;;;;5.63;4.78;;;21.60;66.80;;;;;;5057627;28;20027;-71
2022/09/24 09:34:43;;;;;;;6.32;5.32;;;21.50;65.40;;;;;;5075650;28;20358;-71
2022/09/24 09:37:20;;;;;;;7.93;6.10;;;21.70;63.60;;;;;;5075320;28;20492;-71
2022/09/24 09:40:04;;;;;;;6.00;5.40;;;21.60;63.80;;;;;;5075427;28;20128;-71
2022/09/24 09:42:34;;;;;;;6.25;4.95;;;22.20;62.80;;;;;;5057505;28;20041;-71
2022/09/24 09:45:08;;;;;;;11.63;5.82;;;22.90;59.50;;;;;;5075503;28;20066;-72
2022/09/24 09:47:42;;;;;;;7.38;5.30;;;23.00;59.40;;;;;;5075351;28;20039;-71
2022/09/24 09:50:26;;;;;;;6.45;5.10;;;22.10;58.80;;;;;;5075263;28;20028;-71
2022/09/24 09:52:53;;;;;;;5.68;5.07;;;21.90;60.20;;;;;;5057268;28;20545;-71
2022/09/24 09:55:28;;;;;;;5.15;4.65;;;22.20;60.60;;;;;;5075252;28;20036;-71
2022/09/24 09:58:09;;;;;;;6.70;4.97;;;22.70;58.30;;;;;;5057268;28;20494;-72
2022/09/24 10:00:35;;;;;;;9.02;5.18;;;23.10;58.40;;;;;;5057690;28;20021;-71
2022/09/24 10:03:02;;;;;;;7.05;5.80;;;23.60;57.10;;;;;;5063476;28;20069;-72
2022/09/24 10:05:29;;;;;;;9.13;5.45;;;23.20;56.80;;;;;;5054754;28;20032;-71
2022/09/24 10:07:58;;;;;;;7.85;6.30;;;22.20;56.50;;;;;;5054843;28;20146;-72
2022/09/24 10:10:28;;;;;;;7.57;6.00;;;21.90;59.00;;;;;;5037427;28;20091;-72
2022/09/24 10:13:08;;;;;;;9.10;6.50;;;22.40;58.60;;;;;;5054862;28;20025;-72
2022/09/24 10:15:38;;;;;;;8.15;6.75;;;22.70;58.30;;;;;;5055195;28;20024;-71
2022/09/24 10:18:04;;;;;;;13.48;7.03;;;22.60;57.70;;;;;;5037139;28;20025;-72
2022/09/24 10:20:32;;;;;;;8.68;7.47;;;22.10;58.30;;;;;;5056860;28;20032;-72
2022/09/24 10:23:21;;;;;;;10.48;9.00;;;21.90;58.00;;;;;;5058804;28;20033;-72
2022/09/24 10:26:01;;;;;;;14.60;8.75;;;21.00;60.00;;;;;;5040239;28;20057;-72
2022/09/24 10:31:19;;;;;;;10.43;8.38;;;19.80;63.10;;;;;;5055418;28;20040;-71
2022/09/24 10:33:48;;;;;;;10.32;9.25;;;19.40;63.70;;;;;;5054892;28;20043;-71
2022/09/24 10:36:21;;;;;;;12.93;8.00;;;19.20;65.00;;;;;;5054487;28;20033;-71
2022/09/24 10:38:48;;;;;;;12.13;9.80;;;19.40;66.20;;;;;;5036698;28;20463;-71
2022/09/24 10:41:21;;;;;;;13.95;9.77;;;19.70;65.60;;;;;;5054389;28;20024;-71
2022/09/24 10:43:55;;;;;;;11.10;8.95;;;19.90;66.20;;;;;;5054277;28;20111;-71
2022/09/24 10:46:37;;;;;;;20.33;9.35;;;20.20;64.20;;;;;;5054252;28;20072;-71
2022/09/24 10:49:26;;;;;;;13.88;10.35;;;20.60;64.80;;;;;;5054045;28;20493;-71
2022/09/24 10:52:08;;;;;;;13.07;9.93;;;20.30;64.20;;;;;;5036450;28;20025;-71
2022/09/24 10:54:48;;;;;;;11.55;8.65;;;20.30;65.20;;;;;;5036450;28;20029;-71
2022/09/24 10:57:32;;;;;;;10.93;9.43;;;20.50;64.60;;;;;;5054602;28;20024;-71
2022/09/24 11:00:06;;;;;;;10.90;8.85;;;20.60;63.50;;;;;;5054381;28;20103;-71
2022/09/24 11:03:01;;;;;;;12.77;9.18;;;20.10;63.50;;;;;;5042539;28;20469;-71
2022/09/24 11:05:55;;;;;;;13.35;9.27;;;19.30;66.60;;;;;;5055988;28;20384;-71
2022/09/24 11:08:45;;;;;;;11.90;9.02;;;19.00;68.30;;;;;;5074029;28;20444;-70
2022/09/24 11:11:45;;;;;;;10.77;9.07;;;18.70;68.20;;;;;;5056171;28;20052;-71
2022/09/24 11:14:16;;;;;;;11.55;8.35;;;18.50;68.40;;;;;;5073982;28;20056;-71
2022/09/24 11:16:48;;;;;;;11.40;8.18;;;18.70;69.80;;;;;;5055751;28;20024;-71
2022/09/24 11:19:22;;;;;;;12.93;7.97;;;18.50;69.90;;;;;;5056164;28;20025;-71
2022/09/24 11:22:07;;;;;;;9.30;8.13;;;18.80;69.80;;;;;;5073910;28;20025;-71
2022/09/24 11:24:52;;;;;;;8.15;7.35;;;19.60;69.90;;;;;;5055898;28;20040;-71
2022/09/24 11:27:56;;;;;;;8.80;7.10;;;20.20;66.10;;;;;;5073332;28;20423;-71
2022/09/24 11:30:33;;;;;;;14.18;7.68;;;20.10;65.70;;;;;;5055675;28;20024;-71
2022/09/24 11:33:17;;;;;;;11.18;7.50;;;20.10;65.50;;;;;;5055160;28;20056;-72
2022/09/24 11:36:17;;;;;;;8.68;7.07;;;19.90;66.20;;;;;;5058792;28;20031;-71
2022/09/24 11:39:04;;;;;;;9.32;8.23;;;20.00;68.10;;;;;;5087671;28;20366;-71
2022/09/24 11:41:56;;;;;;;11.00;7.07;;;20.10;65.70;;;;;;5092292;28;20028;-71
2022/09/24 11:44:30;;;;;;;12.55;6.90;;;20.30;67.00;;;;;;5073053;28;20032;-71
2022/09/24 11:47:16;;;;;;;7.30;6.50;;;20.70;65.60;;;;;;5073701;28;20028;-71
2022/09/24 11:50:27;;;;;;;9.63;7.53;;;21.10;65.90;;;;;;5073304;28;20024;-71
2022/09/24 11:53:25;;;;;;;7.90;6.93;;;20.80;65.30;;;;;;5043853;28;20017;-72
2022/09/24 11:56:00;;;;;;;10.48;7.60;;;20.70;66.10;;;;;;5055893;28;20082;-71
2022/09/24 11:58:38;;;;;;;9.40;7.50;;;21.00;64.80;;;;;;5073387;28;20105;-71
2022/09/24 12:01:15;;;;;;;11.68;7.25;;;20.60;65.50;;;;;;5055511;28;20036;-72
2022/09/24 12:03:47;;;;;;;9.55;6.25;;;20.60;66.30;;;;;;5056572;28;20045;-70
2022/09/24 12:06:20;;;;;;;11.00;7.43;;;20.60;67.50;;;;;;5035817;28;20043;-70
2022/09/24 12:09:28;;;;;;;8.02;6.55;;;20.80;66.10;;;;;;5053441;28;20535;-70
2022/09/24 12:11:58;;;;;;;;;;;20.70;66.20;;;;;;4972785;28;20039;-71
2022/09/24 12:14:51;;;;;;;8.02;6.68;;;20.90;65.60;;;;;;5044699;28;20371;-71
2022/09/24 12:17:26;;;;;;;6.82;6.13;;;21.80;64.20;;;;;;5057068;28;20112;-71
2022/09/24 12:20:18;;;;;;;7.20;6.28;;;22.80;61.70;;;;;;5039309;28;20358;-71
2022/09/24 12:22:47;;;;;;;11.18;6.57;;;23.90;59.30;;;;;;5039020;28;20036;-70
2022/09/24 12:25:14;;;;;;;7.32;5.97;;;24.40;57.70;;;;;;5038807;28;20457;-71
2022/09/24 12:27:41;;;;;;;7.00;6.30;;;24.80;56.50;;;;;;5056880;28;20098;-71
2022/09/24 12:33:32;;;;;;;6.97;6.20;;;24.20;57.10;;;;;;5056864;28;20040;-58
2022/09/24 12:36:18;;;;;;;10.27;6.15;;;24.00;58.30;;;;;;5058153;28;20037;-62
2022/09/24 12:38:59;;;;;;;8.45;6.57;;;23.60;58.30;;;;;;5059936;28;20028;-59
2022/09/24 12:41:46;;;;;;;9.07;6.90;;;23.90;57.70;;;;;;5062460;28;20028;-59
2022/09/24 12:44:18;;;;;;;9.88;7.03;;;23.90;58.40;;;;;;5057497;28;20044;-69
2022/09/24 12:46:56;;;;;;;9.30;6.50;;;23.50;57.80;;;;;;5057225;28;20036;-70
2022/09/24 12:49:25;;;;;;;8.15;6.05;;;22.80;59.60;;;;;;5056847;28;20032;-71
2022/09/24 12:51:52;;;;;;;8.70;6.35;;;22.60;60.10;;;;;;5056164;28;20029;-70
2022/09/24 12:54:29;;;;;;;7.50;6.15;;;21.60;61.90;;;;;;5056336;28;20035;-71
2022/09/24 12:57:16;;;;;;;8.07;6.20;;;21.30;64.50;;;;;;5038498;28;20381;-71
2022/09/24 13:00:03;;;;;;;12.95;6.35;;;21.50;64.30;;;;;;5056045;28;20024;-71
2022/09/24 13:02:50;;;;;;;6.40;5.13;;;21.60;64.10;;;;;;5056252;28;20155;-71
2022/09/24 13:05:22;;;;;;;11.15;5.85;;;21.90;63.80;;;;;;5038184;28;20125;-71
2022/09/24 13:08:15;;;;;;;7.15;5.43;;;21.90;63.20;;;;;;5037975;28;20029;-73
2022/09/24 13:10:57;;;;;;;7.95;5.57;;;22.10;63.20;;;;;;5022581;28;20484;-71
2022/09/24 13:13:30;;;;;;;7.90;5.57;;;22.40;62.90;;;;;;5038118;28;20119;-71
2022/09/24 13:16:04;;;;;;;8.02;4.70;;;22.20;62.50;;;;;;5038119;28;20029;-71
2022/09/24 13:18:33;;;;;;;8.10;5.00;;;22.00;63.40;;;;;;5055808;28;20029;-71
2022/09/24 13:21:05;;;;;;;6.53;5.43;;;21.60;64.20;;;;;;5055840;28;20075;-71
2022/09/24 13:23:41;;;;;;;8.85;5.60;;;21.40;65.00;;;;;;5037813;28;20029;-71
2022/09/24 13:26:11;;;;;;;6.88;4.63;;;21.10;65.40;;;;;;5054765;28;20100;-71
2022/09/24 13:28:43;;;;;;;7.57;4.65;;;20.80;65.80;;;;;;5055865;28;20061;-71
2022/09/24 13:31:17;;;;;;;6.82;5.10;;;20.40;66.70;;;;;;5055787;28;20029;-71
2022/09/24 13:33:46;;;;;;;7.22;5.15;;;20.10;68.20;;;;;;5055688;28;20048;-71
2022/09/24 13:36:32;;;;;;;6.18;4.55;;;19.90;69.70;;;;;;5055589;28;20035;-71